עמוד ראשי
METAR-TAF:

METAR-TAF

שדות תעופה :

Al Bahah, ערב הסעודית

קו רוחב: 20-18N, קו אורך: 041-38E, גובה: 1652מטר

תצפית מזג אוויר נוכחית

הדו"ח נערך לפני 25דקות, בשעה 19:00 UTC
רוח 18קשר מכיוון צפון
טמפרטורת 29 צלסיוס
לחות 22%
לחץ 1020 hPa
ראות 10 קילומטר או יותר
עננים פזורים בגובה 3000רגל

METAR: OEBA 131900Z 35018KT 9999 SCT030 29/05 Q1020 NOSIG

זמן: 22:25 (19:25 UTC)

תחזית

הדו"ח נערך לפני 8 שעות ו 25דקות, בשעה 11:00 UTC
תחזית בתוקף מ 13 ב 12 UTC עד 14 ב 18 UTC
רוח 14קשר מכיוון מערב
ראות 10 קילומטר או יותר
מעט עננים בגובה 3000רגל
זמנית מ -
13 ב 12 UTC עד 13 ב 22 UTC
מעט עננים בגובה 2500רגל , קומולונימבוס.
עננים פזורים בגובה 3000רגל
סופת רעמים, גשם
יעשה מ
13 ב 22 UTC עד 14 ב 00 UTC
רוח 10קשר מכיוון צפון/צפון-מערב
יעשה מ
14 ב 10 UTC עד 14 ב 12 UTC
רוח 12קשר מכיוון מערב
עננים פזורים בגובה 3000רגל

TAF: OEBA 131100Z 1312/1418 27014KT 9999 FEW030 TEMPO 1312/1322 TSRA FEW025CB SCT030 BECMG 1322/1400 34010KT BECMG 1410/1412 26012KT SCT030

תצפיות ותחזיות מזג אוויר לגבי יותר מ- 4,000 שדות תעופה ברחבי העולם. דוחות METAR ו- TAF.

התחנות הזמינות מסומנות בנקודות צהובות ואדומות על גבי המפה.

העבר את העכבר לנקודה הצבעונית על מנת לראות את שם התחנה.

לאחר מכן, לחץ כדי לראות את תוכן ואת תחזיות מזג האוויר.

כדי לשנות את המפה: לחץ על הכפתורים הירוקים עם הפלוס השחור כדי להתקרב; על הכפתור הירוק עם המקף כדי להתרחק; או בחיצים הירוקים למפות סמוכות.


METAR-TAF: